Muskoka Airport
CYQA : now visible

Airfield :











YOU CAN JOIN US ON...

 
LOGIN :

Register | Disclaimer

   EN    FR    IT 

 









Legend :    VFR   Marginal VFR   IFR   Intensive IFR   Very Intensive IFR
Visi :
Ceiling :
>= 8 km
>= 3000ft
5 to 8 km
1000 to 3000 ft
1500m to 5 km
500 to 1000 ft
800 to 1500m
200 to 500 ft
< 800m
< 200 ft
Symbols :   Thunderstorms  Fog  Heavy snow  Heavy precipitations  Wind > 20 kt







- Airport Elevation : 925 ft
- IATA code : YQA


CYQA - Muskoka

CURRENT METAR :
  • 212100Z AUTO 17007KT 9SM FEW055 BKN110 26/17 A3009 RMK SLP192 DENSITY ALT 2100FT

EXPIRED METARs :
  • 212000Z AUTO 20010G15KT 150V230 9SM SCT046 BKN060 BKN100 28/17 A3010 RMK SLP194 DENSITY ALT 2300FT
  • 211900Z AUTO 18007KT 160V230 9SM FEW039 28/18 A3011 RMK SLP197 DENSITY ALT 2300FT

TAF TAF CYQA
Valid from the 21 at 20:00 until the 22 at 02:00 UTC


211938Z 2120/2202 18007KT P6SM SCT040
TEMPO 2120/2202 BKN040 RMK FCST BASED ON AUTO OBS. NXT FCST WILL BE ISSUED AT 221145Z
No reported NOTAMs for that airfield.



MET'MAP, your aeronautical weather chart ! - Copyright ORBIFLY December 2007 - Disclaimer

ORBIFLY MET'MAP TEAM :

Programming & Development : Alexandra Zaïnal
Concept & Development : Baudouin d'Aumeries
Co-Development & Prog : Marc-Olivier Méhu
Technical & hardware support : Manuel Goepfert

Contact : metmap@orbifly.com




SOURCES & CREDITS :

   NOAA       Earth
Advisory